createdAt,value
2022-11-27T00:00:20.814Z,67.83
2022-11-27T00:03:46.569Z,67.08
2022-11-27T00:06:52.331Z,64.83
2022-11-27T00:09:57.509Z,63.08
2022-11-27T00:13:02.771Z,61.83
2022-11-27T00:16:08.725Z,60.83
2022-11-27T00:19:14.613Z,59.77
2022-11-27T00:22:20.023Z,57.98
2022-11-27T00:25:25.678Z,57.14
2022-11-27T00:28:31.134Z,59.32
2022-11-27T00:31:37.627Z,61.55
2022-11-27T00:34:43.542Z,65.03
2022-11-27T00:37:48.768Z,69.74
2022-11-27T00:40:54.837Z,68.23
2022-11-27T00:44:00.324Z,65.68
2022-11-27T00:47:07.089Z,64.01
2022-11-27T00:50:12.474Z,63.00
2022-11-27T00:53:20.751Z,62.20
2022-11-27T00:56:26.703Z,61.58
2022-11-27T00:59:31.980Z,60.88
2022-11-27T01:02:37.667Z,59.50
2022-11-27T01:05:43.109Z,56.77
2022-11-27T01:08:48.693Z,58.67
2022-11-27T01:11:56.734Z,61.35
2022-11-27T01:15:03.203Z,62.37
2022-11-27T01:18:08.567Z,68.78
2022-11-27T01:21:14.516Z,70.17
2022-11-27T01:24:19.923Z,66.60
2022-11-27T01:27:25.222Z,64.06
2022-11-27T01:30:30.536Z,62.53
2022-11-27T01:33:36.708Z,61.20
2022-11-27T01:36:42.017Z,60.22
2022-11-27T01:39:47.395Z,58.41
2022-11-27T01:42:52.826Z,58.26
2022-11-27T01:45:58.237Z,59.58
2022-11-27T01:49:21.258Z,61.47
2022-11-27T01:52:31.253Z,67.28
2022-11-27T01:55:38.768Z,69.62
2022-11-27T01:58:44.394Z,66.26
2022-11-27T02:01:49.793Z,64.71
2022-11-27T02:04:56.207Z,63.77
2022-11-27T02:08:03.760Z,62.69
2022-11-27T02:11:14.684Z,62.06
2022-11-27T02:14:23.954Z,61.27
2022-11-27T02:17:31.886Z,60.47
2022-11-27T02:20:41.583Z,59.87
2022-11-27T02:23:57.161Z,58.43
2022-11-27T02:27:10.414Z,58.18
2022-11-27T02:30:16.353Z,60.57
2022-11-27T02:33:22.791Z,62.76
2022-11-27T02:36:31.471Z,68.87
2022-11-27T02:39:43.868Z,67.99
2022-11-27T02:43:00.435Z,64.70
2022-11-27T02:46:07.435Z,62.41
2022-11-27T02:49:16.973Z,60.94
2022-11-27T02:52:22.734Z,59.92
2022-11-27T02:55:31.298Z,57.30
2022-11-27T02:58:37.928Z,58.38
2022-11-27T03:01:46.307Z,59.97
2022-11-27T03:04:53.076Z,62.50
2022-11-27T03:08:02.273Z,69.14
2022-11-27T03:11:09.264Z,67.74
2022-11-27T03:14:15.790Z,64.45
2022-11-27T03:17:27.892Z,62.12
2022-11-27T03:20:38.318Z,60.71
2022-11-27T03:23:43.645Z,59.94
2022-11-27T03:26:49.751Z,57.54
2022-11-27T03:29:56.931Z,57.76
2022-11-27T03:33:02.509Z,60.36
2022-11-27T03:36:13.093Z,60.52
2022-11-27T03:39:18.360Z,64.48
2022-11-27T03:42:26.057Z,70.66
2022-11-27T03:45:34.820Z,67.58
2022-11-27T03:48:44.611Z,65.51
2022-11-27T03:51:54.080Z,64.05
2022-11-27T03:55:01.461Z,62.68
2022-11-27T03:58:09.268Z,61.66
2022-11-27T04:01:17.319Z,60.76
2022-11-27T04:04:22.681Z,59.88
2022-11-27T04:07:28.157Z,58.48
2022-11-27T04:10:33.489Z,58.16
2022-11-27T04:13:39.186Z,60.20
2022-11-27T04:16:44.445Z,62.02
2022-11-27T04:19:50.049Z,67.52
2022-11-27T04:22:55.429Z,68.37
2022-11-27T04:26:00.740Z,65.16
2022-11-27T04:29:06.009Z,62.91
2022-11-27T04:32:14.280Z,61.12
2022-11-27T04:35:19.641Z,60.04
2022-11-27T04:38:27.700Z,57.87
2022-11-27T04:41:33.059Z,58.46
2022-11-27T04:44:38.606Z,60.73
2022-11-27T04:47:47.267Z,61.77
2022-11-27T04:50:52.747Z,67.47
2022-11-27T04:54:01.056Z,70.42
2022-11-27T04:57:06.536Z,66.11
2022-11-27T05:00:12.995Z,63.56
2022-11-27T05:03:18.278Z,62.01
2022-11-27T05:06:23.678Z,60.75
2022-11-27T05:09:29.087Z,59.66
2022-11-27T05:12:34.459Z,57.58
2022-11-27T05:15:39.731Z,58.81
2022-11-27T05:18:45.193Z,61.36
2022-11-27T05:21:50.819Z,66.10
2022-11-27T05:24:56.302Z,68.03
2022-11-27T05:28:01.834Z,64.88
2022-11-27T05:31:07.401Z,62.48
2022-11-27T05:34:12.823Z,60.90
2022-11-27T05:37:19.953Z,60.03
2022-11-27T05:40:28.025Z,58.25
2022-11-27T05:43:33.776Z,57.98
2022-11-27T05:46:39.173Z,60.49
2022-11-27T05:49:44.536Z,62.32
2022-11-27T05:52:49.817Z,68.81
2022-11-27T05:55:55.366Z,67.67
2022-11-27T05:59:00.747Z,64.48
2022-11-27T06:02:06.253Z,62.47
2022-11-27T06:05:13.115Z,61.24
2022-11-27T06:08:19.539Z,60.32
2022-11-27T06:11:24.839Z,59.94
2022-11-27T06:14:31.807Z,59.22
2022-11-27T06:17:37.298Z,57.16
2022-11-27T06:20:45.288Z,58.80
2022-11-27T06:23:54.031Z,61.87
2022-11-27T06:27:02.197Z,68.14
2022-11-27T06:30:10.040Z,68.37
2022-11-27T06:33:16.833Z,65.64
2022-11-27T06:36:22.564Z,63.57
2022-11-27T06:39:27.876Z,62.03
2022-11-27T06:42:33.233Z,60.77
2022-11-27T06:45:38.862Z,59.91
2022-11-27T06:48:46.326Z,57.97
2022-11-27T06:51:51.682Z,58.42
2022-11-27T06:54:57.171Z,60.98
2022-11-27T06:58:02.418Z,65.12
2022-11-27T07:01:08.767Z,68.44
2022-11-27T07:04:16.991Z,65.27
2022-11-27T07:07:22.359Z,63.37
2022-11-27T07:10:27.831Z,62.48
2022-11-27T07:13:35.794Z,61.67
2022-11-27T07:16:41.398Z,61.03
2022-11-27T07:19:47.155Z,60.69
2022-11-27T07:22:52.614Z,60.15
2022-11-27T07:25:57.930Z,59.87
2022-11-27T07:29:03.362Z,59.45
2022-11-27T07:32:10.094Z,56.79
2022-11-27T07:35:15.349Z,58.00
2022-11-27T07:38:22.465Z,59.43
2022-11-27T07:41:33.528Z,59.46
2022-11-27T07:44:39.643Z,59.21
2022-11-27T07:47:45.234Z,59.37
2022-11-27T07:50:50.970Z,59.65
2022-11-27T07:53:56.259Z,65.16
2022-11-27T07:57:01.590Z,72.76
2022-11-27T08:00:07.935Z,71.95
2022-11-27T08:03:13.188Z,68.80
2022-11-27T08:06:19.754Z,66.44
2022-11-27T08:09:25.015Z,65.05
2022-11-27T08:12:30.387Z,64.00
2022-11-27T08:15:35.909Z,62.49
2022-11-27T08:18:41.212Z,61.91
2022-11-27T08:21:46.664Z,60.93
2022-11-27T08:24:52.860Z,60.17
2022-11-27T08:27:58.209Z,59.72
2022-11-27T08:31:04.577Z,57.66
2022-11-27T08:34:09.854Z,57.82
2022-11-27T08:37:15.195Z,59.18
2022-11-27T08:40:20.630Z,60.66
2022-11-27T08:43:26.234Z,60.28
2022-11-27T08:46:31.659Z,62.90
2022-11-27T08:49:39.131Z,70.16
2022-11-27T08:52:46.864Z,69.89
2022-11-27T08:55:52.299Z,66.90
2022-11-27T08:58:57.734Z,64.80
2022-11-27T09:02:03.110Z,64.27
2022-11-27T09:05:09.284Z,62.94
2022-11-27T09:08:20.195Z,61.81
2022-11-27T09:11:25.837Z,60.99
2022-11-27T09:14:31.002Z,60.13
2022-11-27T09:17:36.333Z,59.65
2022-11-27T09:20:44.269Z,56.88
2022-11-27T09:23:49.540Z,57.64
2022-11-27T09:26:54.833Z,58.01
2022-11-27T09:30:00.591Z,58.42
2022-11-27T09:33:05.943Z,60.96
2022-11-27T09:36:12.854Z,66.88
2022-11-27T09:39:19.567Z,69.00
2022-11-27T09:42:32.094Z,67.22
2022-11-27T09:45:40.618Z,64.99
2022-11-27T09:48:48.221Z,63.89
2022-11-27T09:51:57.614Z,62.64
2022-11-27T09:55:12.030Z,61.60
2022-11-27T09:58:21.123Z,60.29
2022-11-27T10:01:34.871Z,58.01
2022-11-27T10:05:12.078Z,57.26
2022-11-27T10:08:23.049Z,57.39
2022-11-27T10:11:30.919Z,59.68
2022-11-27T10:14:44.341Z,60.44
2022-11-27T10:17:52.380Z,60.46
2022-11-27T10:20:59.563Z,60.96
2022-11-27T10:24:08.942Z,61.32
2022-11-27T10:27:17.637Z,64.20
2022-11-27T10:30:22.928Z,71.18
2022-11-27T10:33:31.595Z,71.57
2022-11-27T10:36:38.788Z,68.84
2022-11-27T10:39:46.664Z,66.95
2022-11-27T10:42:55.615Z,64.91
2022-11-27T10:46:04.950Z,63.61
2022-11-27T10:49:10.538Z,61.93
2022-11-27T10:52:17.119Z,61.56
2022-11-27T10:55:29.578Z,61.50
2022-11-27T10:58:37.794Z,60.23
2022-11-27T11:01:44.617Z,59.59
2022-11-27T11:05:03.465Z,56.62
2022-11-27T11:08:19.524Z,56.86
2022-11-27T11:11:27.503Z,57.27
2022-11-27T11:14:32.826Z,59.18
2022-11-27T11:17:38.502Z,66.11
2022-11-27T11:20:47.996Z,67.89
2022-11-27T11:23:58.572Z,66.05
2022-11-27T11:27:05.918Z,63.83
2022-11-27T11:30:21.574Z,63.04
2022-11-27T11:33:28.223Z,61.86
2022-11-27T11:36:33.813Z,59.84
2022-11-27T11:39:44.780Z,58.22
2022-11-27T11:42:54.886Z,55.33
2022-11-27T11:46:07.324Z,55.10
2022-11-27T11:49:21.191Z,56.01
2022-11-27T11:52:33.732Z,56.50
2022-11-27T11:55:42.182Z,57.47
2022-11-27T11:58:53.530Z,59.83
2022-11-27T12:02:10.227Z,62.90
2022-11-27T12:05:25.401Z,68.97
2022-11-27T12:08:37.331Z,68.19
2022-11-27T12:11:45.808Z,64.97
2022-11-27T12:14:55.509Z,61.58
2022-11-27T12:18:02.646Z,58.99
2022-11-27T12:21:15.109Z,55.83
2022-11-27T12:24:27.313Z,56.45
2022-11-27T12:27:49.250Z,60.80
2022-11-27T12:30:57.836Z,65.47
2022-11-27T12:34:07.194Z,62.47
2022-11-27T12:37:22.037Z,60.70
2022-11-27T12:40:33.752Z,55.77
2022-11-27T12:43:42.101Z,54.35
2022-11-27T12:46:52.063Z,54.93
2022-11-27T12:50:00.796Z,56.45
2022-11-27T12:53:11.695Z,57.82
2022-11-27T12:56:24.641Z,60.36
2022-11-27T12:59:33.860Z,66.82
2022-11-27T13:02:42.029Z,66.71
2022-11-27T13:05:49.490Z,62.57
2022-11-27T13:08:57.743Z,60.64
2022-11-27T13:12:04.040Z,59.16
2022-11-27T13:15:18.251Z,56.75
2022-11-27T13:18:29.434Z,54.75
2022-11-27T13:21:36.489Z,57.31
2022-11-27T13:24:42.395Z,63.33
2022-11-27T13:27:51.719Z,65.58
2022-11-27T13:30:59.720Z,64.69
2022-11-27T13:34:07.109Z,62.18
2022-11-27T13:37:25.808Z,59.99
2022-11-27T13:40:32.929Z,58.24
2022-11-27T13:43:42.463Z,54.41
2022-11-27T13:46:49.487Z,53.90
2022-11-27T13:50:01.542Z,55.49
2022-11-27T13:53:07.890Z,57.15
2022-11-27T13:56:13.808Z,58.45
2022-11-27T13:59:20.064Z,59.66
2022-11-27T14:02:25.923Z,67.70
2022-11-27T14:05:40.188Z,69.20
2022-11-27T14:08:51.074Z,68.14
2022-11-27T14:11:56.729Z,66.39
2022-11-27T14:15:04.214Z,64.75
2022-11-27T14:18:17.712Z,63.52
2022-11-27T14:21:27.042Z,60.81
2022-11-27T14:24:43.890Z,57.97
2022-11-27T14:27:51.240Z,55.12
2022-11-27T14:30:57.946Z,57.19
2022-11-27T14:34:23.362Z,58.09
2022-11-27T14:37:30.051Z,59.31
2022-11-27T14:40:35.533Z,63.95
2022-11-27T14:43:40.835Z,67.63
2022-11-27T14:46:46.232Z,67.69
2022-11-27T14:49:56.510Z,65.90
2022-11-27T14:53:01.917Z,63.61
2022-11-27T14:56:07.795Z,62.23
2022-11-27T14:59:14.820Z,61.03
2022-11-27T15:02:24.629Z,60.42
2022-11-27T15:05:34.224Z,59.25
2022-11-27T15:08:39.555Z,56.52
2022-11-27T15:11:56.231Z,56.89
2022-11-27T15:15:04.365Z,57.57
2022-11-27T15:18:10.558Z,57.25
2022-11-27T15:21:19.508Z,57.24
2022-11-27T15:24:34.127Z,57.38
2022-11-27T15:27:47.644Z,57.88
2022-11-27T15:30:52.976Z,58.48
2022-11-27T15:34:03.100Z,60.04
2022-11-27T15:37:21.349Z,61.91
2022-11-27T15:40:29.770Z,69.07
2022-11-27T15:43:35.026Z,73.69
2022-11-27T15:46:42.708Z,71.69
2022-11-27T15:49:50.618Z,69.13
2022-11-27T15:52:56.017Z,66.53
2022-11-27T15:56:01.230Z,64.91
2022-11-27T15:59:07.097Z,63.76
2022-11-27T16:02:17.495Z,63.51
2022-11-27T16:05:26.001Z,62.64
2022-11-27T16:08:31.421Z,61.55
2022-11-27T16:11:37.038Z,60.31
2022-11-27T16:14:42.802Z,59.39
2022-11-27T16:17:48.617Z,56.55
2022-11-27T16:20:53.937Z,56.76
2022-11-27T16:24:00.032Z,55.94
2022-11-27T16:27:07.231Z,56.03
2022-11-27T16:30:13.402Z,58.16
2022-11-27T16:33:20.084Z,57.99
2022-11-27T16:36:26.175Z,59.44
2022-11-27T16:39:32.575Z,60.11
2022-11-27T16:42:37.900Z,62.64
2022-11-27T16:45:43.813Z,68.69
2022-11-27T16:48:50.078Z,73.03
2022-11-27T16:51:55.797Z,71.91
2022-11-27T16:55:01.308Z,69.22
2022-11-27T16:58:06.550Z,66.37
2022-11-27T17:01:13.003Z,64.36
2022-11-27T17:04:19.658Z,63.38
2022-11-27T17:07:24.986Z,62.50
2022-11-27T17:10:30.903Z,60.85
2022-11-27T17:13:37.779Z,59.88
2022-11-27T17:16:43.460Z,57.95
2022-11-27T17:19:55.099Z,56.99
2022-11-27T17:23:00.691Z,58.28
2022-11-27T17:26:10.337Z,58.50
2022-11-27T17:29:16.767Z,58.24
2022-11-27T17:32:22.305Z,58.83
2022-11-27T17:35:27.803Z,58.68
2022-11-27T17:38:33.650Z,62.41
2022-11-27T17:41:39.895Z,69.74
2022-11-27T17:44:47.552Z,71.81
2022-11-27T17:47:53.006Z,70.15
2022-11-27T17:50:59.047Z,67.16
2022-11-27T17:54:05.633Z,65.25
2022-11-27T17:57:11.018Z,63.01
2022-11-27T18:00:18.688Z,61.98
2022-11-27T18:03:24.343Z,61.00
2022-11-27T18:06:32.376Z,59.72
2022-11-27T18:09:38.304Z,56.98
2022-11-27T18:12:43.809Z,57.20
2022-11-27T18:15:49.323Z,57.77
2022-11-27T18:18:54.888Z,58.99
2022-11-27T18:22:00.456Z,59.09
2022-11-27T18:25:06.224Z,58.50
2022-11-27T18:28:11.542Z,58.28
2022-11-27T18:31:17.875Z,58.75
2022-11-27T18:34:23.314Z,59.40
2022-11-27T18:37:28.684Z,59.95
2022-11-27T18:40:37.541Z,61.77
2022-11-27T18:43:43.670Z,67.50
2022-11-27T18:46:50.751Z,74.64
2022-11-27T18:49:59.652Z,72.89
2022-11-27T18:53:05.139Z,69.84
2022-11-27T18:56:13.489Z,67.40
2022-11-27T18:59:18.915Z,65.43
2022-11-27T19:02:24.450Z,63.34
2022-11-27T19:05:30.007Z,62.06
2022-11-27T19:08:36.475Z,60.62
2022-11-27T19:11:42.160Z,60.05
2022-11-27T19:14:47.433Z,57.88
2022-11-27T19:17:56.734Z,56.31
2022-11-27T19:21:02.251Z,55.75
2022-11-27T19:24:07.869Z,57.30
2022-11-27T19:27:13.280Z,60.68
2022-11-27T19:30:18.968Z,66.06
2022-11-27T19:33:25.303Z,69.30
2022-11-27T19:36:31.371Z,67.34
2022-11-27T19:39:36.786Z,65.49
2022-11-27T19:42:43.609Z,64.20
2022-11-27T19:45:49.337Z,62.71
2022-11-27T19:48:57.459Z,61.24
2022-11-27T19:52:02.926Z,60.51
2022-11-27T19:55:09.418Z,58.73
2022-11-27T19:58:15.114Z,55.93
2022-11-27T20:01:20.902Z,55.67
2022-11-27T20:04:26.525Z,55.81
2022-11-27T20:07:31.831Z,56.78
2022-11-27T20:10:44.174Z,59.14
2022-11-27T20:13:59.666Z,60.63
2022-11-27T20:17:06.115Z,66.59
2022-11-27T20:20:13.570Z,71.25
2022-11-27T20:23:19.426Z,70.09
2022-11-27T20:26:25.673Z,68.42
2022-11-27T20:29:32.237Z,66.50
2022-11-27T20:32:37.448Z,65.30
2022-11-27T20:35:43.697Z,64.03
2022-11-27T20:38:49.147Z,62.94
2022-11-27T20:41:55.419Z,62.20
2022-11-27T20:45:05.052Z,62.22
2022-11-27T20:48:11.875Z,62.45
2022-11-27T20:51:18.690Z,62.25
2022-11-27T20:54:24.312Z,61.93
2022-11-27T20:57:29.747Z,61.73
2022-11-27T21:00:35.130Z,61.02
2022-11-27T21:03:42.875Z,60.99
2022-11-27T21:06:48.588Z,60.88
2022-11-27T21:09:53.985Z,60.53
2022-11-27T21:12:59.614Z,60.04
2022-11-27T21:16:07.743Z,59.68
2022-11-27T21:19:15.647Z,59.58
2022-11-27T21:22:21.219Z,59.65
2022-11-27T21:25:27.224Z,58.82
2022-11-27T21:28:33.541Z,55.87
2022-11-27T21:31:42.682Z,55.20
2022-11-27T21:34:52.165Z,57.66
2022-11-27T21:37:57.519Z,59.50
2022-11-27T21:41:02.851Z,60.09
2022-11-27T21:44:08.478Z,64.86
2022-11-27T21:47:13.877Z,69.13
2022-11-27T21:50:19.321Z,70.74
2022-11-27T21:53:25.430Z,70.16
2022-11-27T21:56:34.190Z,69.23
2022-11-27T21:59:39.418Z,67.86
2022-11-27T22:02:46.020Z,66.11
2022-11-27T22:05:59.082Z,64.18
2022-11-27T22:09:05.097Z,63.08
2022-11-27T22:12:10.522Z,61.76
2022-11-27T22:15:15.869Z,60.37
2022-11-27T22:18:21.216Z,59.20
2022-11-27T22:21:28.438Z,56.33
2022-11-27T22:24:43.497Z,57.15
2022-11-27T22:27:49.232Z,57.19
2022-11-27T22:30:54.664Z,56.56
2022-11-27T22:34:00.472Z,57.25
2022-11-27T22:37:08.881Z,61.02
2022-11-27T22:40:15.555Z,68.56
2022-11-27T22:43:20.945Z,70.01
2022-11-27T22:46:27.605Z,70.21
2022-11-27T22:49:33.060Z,69.30
2022-11-27T22:52:38.467Z,68.34
2022-11-27T22:55:43.990Z,67.03
2022-11-27T22:58:49.353Z,65.68
2022-11-27T23:01:54.918Z,64.16
2022-11-27T23:05:00.467Z,63.48
2022-11-27T23:08:06.026Z,63.01
2022-11-27T23:11:14.568Z,62.81
2022-11-27T23:14:19.999Z,62.38
2022-11-27T23:17:25.489Z,61.91
2022-11-27T23:20:30.781Z,61.46
2022-11-27T23:23:36.744Z,61.05
2022-11-27T23:26:41.918Z,61.03
2022-11-27T23:29:47.240Z,61.13
2022-11-27T23:32:52.782Z,60.88
2022-11-27T23:36:00.163Z,60.63
2022-11-27T23:39:06.959Z,59.70
2022-11-27T23:42:12.309Z,56.81
2022-11-27T23:45:19.065Z,56.53
2022-11-27T23:48:24.371Z,57.34
2022-11-27T23:51:31.837Z,60.96
2022-11-27T23:54:37.212Z,64.07
2022-11-27T23:57:44.769Z,67.28
